Overview Statistics Trail Chart Weather Telemetry Raw packets
 

This is the latest recevied weather packets stored in our database for station/object R8AHC-W2. If no packets are shown the sender has not sent any weather packets the latest 10 day(s).

<< 1 2 3 4 5 6 7 >>
Time Temp. Humidity Pressure Rain* Wind** Luminosity Snow
1777921022 7.22° C 91% 1011 hPa - 0.89 m/s, 267° - -
1777917422 4.44° C 83% 1012 hPa - 4.02 m/s, 290° - -
1777913823 5.56° C 83% 1012 hPa - 4.02 m/s, 290° - -
1777910222 6.67° C 83% 1011 hPa - 4.02 m/s, 290° - -
1777906622 7.78° C 83% 1011 hPa - 4.02 m/s, 290° - -
1777903022 8.89° C 83% 1010 hPa - 4.02 m/s, 290° - -
1777899422 10° C 83% 1010 hPa - 4.02 m/s, 290° - -
1777895822 11.11° C 83% 1010 hPa - 4.02 m/s, 290° - -
1777892222 7.78° C 79% 1010 hPa - 3.13 m/s, 285° - -
1777888622 8.89° C 79% 1010 hPa - 3.13 m/s, 285° - -
1777885022 10° C 79% 1010 hPa - 3.13 m/s, 285° - -
1777881422 11.11° C 79% 1009 hPa - 3.13 m/s, 285° - -
1777877823 12.22° C 79% 1010 hPa - 3.13 m/s, 285° - -
1777874221 5.56° C 97% 1010 hPa - 0.89 m/s, 197° - -
1777870622 6.67° C 97% 1010 hPa - 0.89 m/s, 197° - -
1777867022 7.78° C 97% 1011 hPa - 0.89 m/s, 197° - -
1777863421 3.33° C 98% 1011 hPa - 2.24 m/s, 134° - -
1777859822 4.44° C 98% 1011 hPa - 2.24 m/s, 134° - -
1777856222 5.56° C 98% 1012 hPa - 2.24 m/s, 134° - -
1777852623 6.67° C 98% 1013 hPa - 2.24 m/s, 134° - -
1777849022 2.78° C 98% 1014 hPa - 1.79 m/s, 148° - -
1777845422 3.89° C 98% 1015 hPa - 1.79 m/s, 148° - -
1777841822 5° C 98% 1015 hPa - 1.79 m/s, 148° - -
1777838222 6.11° C 98% 1016 hPa - 1.79 m/s, 148° - -
1777834622 1.67° C 38% 1018 hPa - 1.34 m/s, 193° - -

* Rain since midnight (hover to see other rain measurements)
** Current wind speed in m/s (hover to see current wind gust speed)